createdAt,value
2023-03-25T00:00:20.024Z,5.95
2023-03-25T00:02:49.738Z,4.55
2023-03-25T00:05:18.711Z,9.75
2023-03-25T00:07:46.953Z,6.30
2023-03-25T00:10:14.915Z,6.30
2023-03-25T00:12:43.024Z,7.38
2023-03-25T00:15:11.645Z,8.52
2023-03-25T00:17:40.494Z,8.63
2023-03-25T00:20:10.108Z,7.90
2023-03-25T00:22:40.899Z,5.07
2023-03-25T00:25:16.748Z,4.43
2023-03-25T00:27:46.997Z,4.03
2023-03-25T00:30:15.954Z,2.92
2023-03-25T00:32:46.104Z,2.35
2023-03-25T00:35:13.955Z,2.17
2023-03-25T00:37:41.420Z,2.35
2023-03-25T00:40:09.048Z,1.80
2023-03-25T00:42:36.217Z,2.15
2023-03-25T00:45:03.877Z,1.85
2023-03-25T00:47:31.608Z,1.45
2023-03-25T00:49:59.024Z,1.60
2023-03-25T00:52:26.431Z,1.38
2023-03-25T00:54:53.988Z,1.52
2023-03-25T00:57:21.188Z,1.35
2023-03-25T00:59:49.075Z,1.45
2023-03-25T01:02:19.109Z,1.23
2023-03-25T01:04:46.759Z,0.82
2023-03-25T01:07:16.011Z,1.00
2023-03-25T01:09:46.519Z,0.85
2023-03-25T01:12:14.421Z,1.20
2023-03-25T01:14:42.103Z,0.95
2023-03-25T01:17:09.522Z,1.08
2023-03-25T01:19:36.897Z,1.00
2023-03-25T01:22:04.359Z,0.93
2023-03-25T01:24:32.011Z,1.10
2023-03-25T01:26:59.612Z,0.80
2023-03-25T01:29:26.880Z,1.40
2023-03-25T01:31:54.432Z,1.02
2023-03-25T01:34:22.132Z,1.00
2023-03-25T01:36:49.623Z,0.80
2023-03-25T01:39:18.781Z,0.90
2023-03-25T01:41:50.577Z,0.80
2023-03-25T01:44:24.296Z,0.88
2023-03-25T01:46:54.220Z,0.70
2023-03-25T01:49:30.493Z,0.90
2023-03-25T01:52:00.660Z,0.98
2023-03-25T01:54:28.236Z,0.77
2023-03-25T01:56:56.406Z,0.70
2023-03-25T01:59:26.106Z,0.65
2023-03-25T02:01:54.016Z,0.80
2023-03-25T02:04:27.480Z,0.70
2023-03-25T02:06:55.363Z,0.82
2023-03-25T02:09:25.568Z,1.05
2023-03-25T02:11:55.075Z,0.80
2023-03-25T02:14:24.942Z,0.70
2023-03-25T02:16:52.395Z,1.00
2023-03-25T02:19:19.652Z,0.70
2023-03-25T02:22:04.110Z,0.90
2023-03-25T02:24:54.197Z,1.10
2023-03-25T02:27:28.607Z,0.80
2023-03-25T02:30:11.734Z,0.88
2023-03-25T02:32:58.204Z,0.77
2023-03-25T02:35:28.703Z,0.90
2023-03-25T02:38:10.399Z,0.90
2023-03-25T02:40:39.531Z,1.23
2023-03-25T02:43:11.000Z,0.88
2023-03-25T02:45:41.648Z,0.60
2023-03-25T02:48:12.182Z,0.70
2023-03-25T02:50:43.423Z,0.80
2023-03-25T02:53:13.731Z,0.73
2023-03-25T02:55:42.854Z,0.40
2023-03-25T02:58:20.110Z,0.35
2023-03-25T03:00:48.916Z,0.30
2023-03-25T03:03:16.255Z,0.22
2023-03-25T03:05:44.938Z,0.50
2023-03-25T03:08:31.128Z,0.20
2023-03-25T03:11:04.327Z,0.20
2023-03-25T03:13:50.324Z,0.20
2023-03-25T03:16:37.732Z,0.10
2023-03-25T03:19:09.173Z,0.20
2023-03-25T03:21:47.003Z,0.30
2023-03-25T03:24:17.702Z,0.50
2023-03-25T03:26:47.631Z,0.20
2023-03-25T03:29:17.588Z,0.35
2023-03-25T03:32:06.004Z,0.15
2023-03-25T03:34:41.160Z,0.40
2023-03-25T03:37:09.813Z,0.20
2023-03-25T03:39:37.571Z,0.30
2023-03-25T03:42:11.746Z,0.22
2023-03-25T03:44:40.686Z,0.20
2023-03-25T03:47:17.262Z,0.35
2023-03-25T03:49:59.729Z,0.60
2023-03-25T03:52:31.821Z,0.30
2023-03-25T03:55:01.332Z,0.30
2023-03-25T03:57:34.205Z,0.50
2023-03-25T04:00:07.926Z,0.40
2023-03-25T04:02:40.907Z,0.45
2023-03-25T04:05:13.046Z,0.25
2023-03-25T04:07:42.761Z,0.30
2023-03-25T04:10:14.939Z,0.90
2023-03-25T04:12:44.237Z,0.60
2023-03-25T04:15:11.690Z,0.28
2023-03-25T04:17:39.356Z,0.38
2023-03-25T04:20:09.310Z,0.30
2023-03-25T04:22:38.096Z,0.40
2023-03-25T04:25:08.370Z,0.40
2023-03-25T04:27:37.835Z,0.60
2023-03-25T04:30:06.423Z,0.40
2023-03-25T04:32:35.343Z,0.60
2023-03-25T04:35:02.703Z,0.43
2023-03-25T04:37:29.920Z,0.85
2023-03-25T04:40:00.379Z,0.60
2023-03-25T04:42:32.820Z,0.40
2023-03-25T04:45:00.507Z,0.47
2023-03-25T04:47:28.133Z,0.50
2023-03-25T04:49:55.887Z,0.60
2023-03-25T04:52:23.324Z,0.60
2023-03-25T04:54:50.511Z,0.30
2023-03-25T04:57:18.467Z,0.50
2023-03-25T04:59:45.893Z,1.55
2023-03-25T05:02:13.570Z,0.73
2023-03-25T05:04:42.249Z,0.60
2023-03-25T05:07:10.020Z,0.60
2023-03-25T05:09:37.510Z,0.70
2023-03-25T05:12:06.379Z,0.70
2023-03-25T05:14:33.567Z,1.13
2023-03-25T05:17:00.806Z,2.90
2023-03-25T05:19:28.899Z,2.55
2023-03-25T05:21:56.300Z,2.25
2023-03-25T05:24:23.648Z,1.20
2023-03-25T05:26:50.861Z,1.17
2023-03-25T05:29:18.132Z,1.08
2023-03-25T05:31:46.397Z,0.80
2023-03-25T05:34:14.638Z,0.88
2023-03-25T05:36:42.104Z,4.00
2023-03-25T05:39:10.859Z,2.20
2023-03-25T05:41:40.786Z,1.30
2023-03-25T05:44:08.734Z,1.10
2023-03-25T05:46:36.021Z,0.63
2023-03-25T05:49:03.221Z,0.65
2023-03-25T05:51:33.974Z,0.40
2023-03-25T05:54:01.852Z,0.50
2023-03-25T05:56:29.475Z,0.60
2023-03-25T05:58:57.684Z,0.50
2023-03-25T06:01:33.364Z,0.70
2023-03-25T06:04:02.583Z,0.40
2023-03-25T06:06:32.266Z,0.57
2023-03-25T06:08:59.890Z,0.55
2023-03-25T06:11:27.067Z,0.85
2023-03-25T06:13:54.284Z,0.30
2023-03-25T06:16:22.799Z,0.30
2023-03-25T06:18:51.476Z,0.30
2023-03-25T06:21:19.882Z,0.40
2023-03-25T06:23:50.252Z,0.40
2023-03-25T06:26:17.770Z,0.40
2023-03-25T06:28:46.111Z,0.40
2023-03-25T06:31:17.112Z,0.57
2023-03-25T06:33:45.097Z,0.40
2023-03-25T06:36:13.723Z,0.50
2023-03-25T06:38:40.879Z,0.60
2023-03-25T06:41:08.064Z,0.65
2023-03-25T06:43:35.514Z,0.30
2023-03-25T06:46:02.738Z,0.50
2023-03-25T06:48:30.506Z,1.00
2023-03-25T06:50:57.705Z,0.80
2023-03-25T06:53:25.130Z,0.47
2023-03-25T06:55:52.688Z,0.50
2023-03-25T06:58:20.019Z,0.20
2023-03-25T07:00:47.206Z,0.30
2023-03-25T07:03:14.398Z,0.35
2023-03-25T07:05:43.481Z,0.35
2023-03-25T07:08:10.856Z,0.47
2023-03-25T07:10:39.479Z,0.40
2023-03-25T07:13:06.823Z,0.30
2023-03-25T07:15:35.412Z,0.30
2023-03-25T07:18:02.597Z,0.52
2023-03-25T07:20:29.740Z,0.43
2023-03-25T07:22:56.867Z,0.45
2023-03-25T07:25:24.397Z,0.40
2023-03-25T07:27:51.498Z,0.40
2023-03-25T07:30:19.037Z,0.40
2023-03-25T07:32:46.495Z,0.50
2023-03-25T07:35:13.997Z,0.40
2023-03-25T07:37:41.198Z,0.40
2023-03-25T07:40:08.740Z,0.40
2023-03-25T07:42:37.744Z,0.40
2023-03-25T07:45:05.564Z,0.40
2023-03-25T07:47:32.883Z,0.30
2023-03-25T07:50:00.549Z,0.55
2023-03-25T07:52:27.719Z,0.22
2023-03-25T07:54:54.958Z,0.30
2023-03-25T07:57:22.082Z,0.40
2023-03-25T07:59:49.215Z,0.20
2023-03-25T08:02:16.548Z,0.30
2023-03-25T08:04:44.051Z,0.28
2023-03-25T08:07:11.619Z,0.30
2023-03-25T08:09:38.770Z,0.20
2023-03-25T08:12:06.174Z,0.20
2023-03-25T08:14:33.292Z,0.40
2023-03-25T08:17:00.862Z,0.52
2023-03-25T08:19:28.311Z,0.40
2023-03-25T08:21:56.019Z,0.60
2023-03-25T08:24:24.858Z,0.20
2023-03-25T08:26:52.050Z,0.30
2023-03-25T08:29:20.176Z,0.20
2023-03-25T08:31:52.224Z,0.30
2023-03-25T08:34:20.313Z,0.30
2023-03-25T08:36:47.603Z,0.20
2023-03-25T08:39:17.265Z,0.30
2023-03-25T08:41:45.326Z,0.43
2023-03-25T08:44:12.520Z,0.25
2023-03-25T08:46:40.015Z,0.40
2023-03-25T08:49:07.262Z,0.20
2023-03-25T08:51:34.759Z,0.20
2023-03-25T08:54:02.060Z,0.30
2023-03-25T08:56:29.786Z,0.40
2023-03-25T08:58:57.011Z,0.20
2023-03-25T09:01:24.373Z,0.20
2023-03-25T09:03:53.130Z,0.28
2023-03-25T09:06:20.814Z,0.10
2023-03-25T09:08:50.355Z,3.03
2023-03-25T09:11:24.201Z,0.32
2023-03-25T09:14:03.922Z,0.17
2023-03-25T09:18:58.300Z,0.50
2023-03-25T09:21:25.425Z,0.10
2023-03-25T09:23:52.811Z,0.50
2023-03-25T09:26:20.018Z,0.40
2023-03-25T09:28:48.016Z,0.45
2023-03-25T09:31:15.334Z,0.32
2023-03-25T09:33:42.757Z,1.65
2023-03-25T09:36:10.073Z,0.50
2023-03-25T09:38:37.361Z,0.63
2023-03-25T09:41:06.429Z,0.40
2023-03-25T09:43:52.322Z,0.60
2023-03-25T09:46:19.502Z,0.40
2023-03-25T09:48:48.096Z,0.40
2023-03-25T09:51:21.382Z,0.35
2023-03-25T09:53:56.964Z,0.40
2023-03-25T09:56:26.386Z,0.50
2023-03-25T09:58:55.637Z,0.55
2023-03-25T10:01:31.737Z,0.30
2023-03-25T10:04:03.998Z,0.50
2023-03-25T10:06:32.092Z,0.43
2023-03-25T10:09:18.294Z,0.30
2023-03-25T10:12:03.993Z,0.30
2023-03-25T10:14:38.797Z,0.40
2023-03-25T10:17:11.972Z,0.63
2023-03-25T10:19:46.858Z,0.40
2023-03-25T10:22:19.065Z,0.52
2023-03-25T10:24:49.446Z,0.50
2023-03-25T10:27:20.882Z,0.47
2023-03-25T10:29:57.729Z,2.22
2023-03-25T10:32:32.103Z,0.40
2023-03-25T10:35:00.336Z,0.68
2023-03-25T10:37:31.745Z,0.75
2023-03-25T10:40:08.496Z,0.60
2023-03-25T10:42:41.164Z,0.70
2023-03-25T10:45:18.798Z,0.77
2023-03-25T10:47:47.467Z,0.60
2023-03-25T10:50:18.399Z,1.48
2023-03-25T10:52:46.075Z,1.13
2023-03-25T10:55:25.351Z,0.90
2023-03-25T10:57:53.362Z,0.90
2023-03-25T11:00:20.925Z,0.85
2023-03-25T11:02:49.003Z,1.65
2023-03-25T11:05:19.072Z,1.10
2023-03-25T11:07:55.341Z,1.40
2023-03-25T11:10:22.488Z,1.17
2023-03-25T11:12:51.717Z,1.45
2023-03-25T11:15:27.141Z,1.60
2023-03-25T11:17:59.760Z,2.47
2023-03-25T11:20:29.430Z,1.35
2023-03-25T11:23:00.386Z,1.30
2023-03-25T11:25:30.190Z,1.35
2023-03-25T11:27:58.991Z,1.52
2023-03-25T11:30:26.769Z,1.00
2023-03-25T11:33:03.370Z,0.80
2023-03-25T11:35:32.372Z,1.35
2023-03-25T11:38:01.088Z,1.20
2023-03-25T11:40:29.260Z,1.30
2023-03-25T11:42:57.660Z,1.20
2023-03-25T11:45:45.505Z,0.90
2023-03-25T11:48:16.613Z,1.27
2023-03-25T11:51:00.994Z,1.30
2023-03-25T11:53:28.919Z,1.13
2023-03-25T11:55:57.031Z,1.45
2023-03-25T11:58:27.447Z,1.00
2023-03-25T12:01:01.352Z,1.20
2023-03-25T12:03:28.967Z,1.20
2023-03-25T12:06:06.968Z,1.00
2023-03-25T12:08:53.000Z,1.30
2023-03-25T12:11:42.488Z,0.82
2023-03-25T12:14:19.185Z,0.90
2023-03-25T12:16:58.582Z,0.90
2023-03-25T12:19:25.687Z,0.80
2023-03-25T12:22:12.907Z,0.90
2023-03-25T12:24:43.087Z,0.40
2023-03-25T12:27:35.307Z,0.40
2023-03-25T12:30:21.637Z,0.28
2023-03-25T12:33:04.811Z,0.10
2023-03-25T12:35:37.437Z,0.20
2023-03-25T12:38:06.013Z,0.23
2023-03-25T12:40:45.732Z,0.17
2023-03-25T12:43:21.170Z,0.10
2023-03-25T12:45:48.496Z,0.10
2023-03-25T12:48:26.707Z,0.15
2023-03-25T12:51:20.482Z,0.08
2023-03-25T12:54:07.217Z,0.30
2023-03-25T12:56:40.710Z,0.10
2023-03-25T13:01:43.066Z,0.63
2023-03-25T13:04:11.159Z,0.10
2023-03-25T13:06:59.120Z,0.20
2023-03-25T13:09:38.142Z,0.10
2023-03-25T13:12:28.905Z,0.32
2023-03-25T13:14:59.329Z,0.43
2023-03-25T13:17:31.333Z,0.10
2023-03-25T13:20:01.190Z,0.10
2023-03-25T13:22:32.524Z,0.10
2023-03-25T13:25:01.723Z,0.20
2023-03-25T13:27:34.058Z,0.30
2023-03-25T13:30:03.035Z,0.20
2023-03-25T13:32:34.212Z,0.13
2023-03-25T13:35:04.632Z,0.30
2023-03-25T13:37:41.439Z,0.50
2023-03-25T13:40:12.876Z,0.63
2023-03-25T13:42:55.861Z,0.60
2023-03-25T13:45:26.393Z,0.60
2023-03-25T13:48:11.270Z,0.35
2023-03-25T13:50:39.092Z,0.30
2023-03-25T13:53:11.096Z,1.02
2023-03-25T13:55:40.908Z,0.40
2023-03-25T13:58:27.137Z,0.45
2023-03-25T14:01:04.534Z,0.50
2023-03-25T14:03:40.776Z,0.40
2023-03-25T14:06:25.619Z,0.65
2023-03-25T14:09:06.980Z,0.30
2023-03-25T14:11:53.685Z,0.30
2023-03-25T14:14:22.518Z,0.45
2023-03-25T14:16:54.834Z,0.30
2023-03-25T14:19:31.730Z,0.50
2023-03-25T14:21:59.429Z,0.40
2023-03-25T14:24:32.284Z,0.52
2023-03-25T14:27:05.134Z,0.40
2023-03-25T14:30:02.912Z,0.38
2023-03-25T14:32:33.204Z,0.13
2023-03-25T14:35:19.702Z,0.50
2023-03-25T14:37:47.005Z,0.70
2023-03-25T14:40:33.181Z,0.40
2023-03-25T14:43:00.680Z,0.45
2023-03-25T14:45:38.634Z,0.30
2023-03-25T14:48:25.781Z,0.70
2023-03-25T14:51:11.987Z,0.30
2023-03-25T14:53:39.740Z,0.40
2023-03-25T14:56:08.530Z,0.35
2023-03-25T14:58:38.359Z,0.50
2023-03-25T15:01:07.359Z,0.43
2023-03-25T15:03:36.424Z,0.40
2023-03-25T15:06:04.711Z,0.63
2023-03-25T15:08:36.979Z,0.47
2023-03-25T15:11:09.626Z,0.45
2023-03-25T15:13:39.594Z,0.50
2023-03-25T15:16:17.517Z,0.30
2023-03-25T15:18:45.088Z,0.47
2023-03-25T15:21:13.340Z,0.47
2023-03-25T15:23:42.106Z,0.50
2023-03-25T15:26:29.544Z,0.82
2023-03-25T15:29:05.724Z,0.70
2023-03-25T15:31:40.746Z,0.57
2023-03-25T15:34:13.473Z,0.73
2023-03-25T15:36:40.583Z,0.82
2023-03-25T15:39:24.961Z,0.63
2023-03-25T15:42:01.714Z,0.70
2023-03-25T15:44:47.652Z,0.70
2023-03-25T15:47:17.776Z,0.88
2023-03-25T15:49:48.101Z,0.60
2023-03-25T15:52:41.902Z,0.60
2023-03-25T15:55:19.979Z,1.85
2023-03-25T15:57:47.128Z,1.00
2023-03-25T16:00:16.986Z,0.80
2023-03-25T16:03:04.838Z,0.73
2023-03-25T16:05:33.080Z,0.90
2023-03-25T16:08:01.733Z,0.65
2023-03-25T16:10:32.734Z,0.77
2023-03-25T16:13:03.090Z,0.80
2023-03-25T16:15:31.521Z,0.90
2023-03-25T16:17:59.595Z,0.70
2023-03-25T16:20:28.065Z,0.60
2023-03-25T16:22:56.594Z,0.90
2023-03-25T16:25:27.707Z,0.50
2023-03-25T16:27:58.367Z,0.77
2023-03-25T16:30:37.115Z,0.60
2023-03-25T16:33:24.890Z,0.40
2023-03-25T16:36:06.476Z,0.80
2023-03-25T16:38:34.480Z,0.45
2023-03-25T16:41:03.142Z,0.40
2023-03-25T16:43:32.699Z,0.57
2023-03-25T16:46:04.528Z,0.40
2023-03-25T16:48:42.391Z,0.60
2023-03-25T16:51:17.413Z,0.70
2023-03-25T16:53:45.884Z,0.40
2023-03-25T16:56:16.632Z,0.43
2023-03-25T16:59:00.290Z,0.80
2023-03-25T17:01:29.499Z,0.57
2023-03-25T17:04:09.089Z,0.60
2023-03-25T17:06:39.356Z,0.50
2023-03-25T17:09:12.236Z,0.60
2023-03-25T17:11:39.680Z,0.68
2023-03-25T17:14:08.777Z,0.47
2023-03-25T17:16:38.161Z,1.60
2023-03-25T17:19:05.847Z,1.10
2023-03-25T17:21:34.934Z,0.63
2023-03-25T17:24:04.315Z,1.00
2023-03-25T17:26:36.655Z,1.10
2023-03-25T17:29:07.600Z,1.23
2023-03-25T17:31:39.174Z,0.65
2023-03-25T17:34:08.064Z,0.98
2023-03-25T17:36:36.959Z,0.70
2023-03-25T17:39:05.933Z,2.38
2023-03-25T17:41:38.619Z,1.08
2023-03-25T17:44:08.839Z,0.90
2023-03-25T17:46:36.887Z,0.77
2023-03-25T17:49:05.689Z,0.75
2023-03-25T17:51:32.822Z,0.60
2023-03-25T17:54:00.336Z,0.70
2023-03-25T17:56:28.374Z,1.17
2023-03-25T17:58:59.628Z,0.70
2023-03-25T18:01:27.654Z,0.55
2023-03-25T18:03:55.311Z,0.90
2023-03-25T18:06:22.756Z,1.15
2023-03-25T18:08:53.563Z,0.95
2023-03-25T18:11:21.252Z,0.85
2023-03-25T18:13:48.892Z,1.50
2023-03-25T18:16:17.125Z,0.90
2023-03-25T18:18:44.854Z,0.90
2023-03-25T18:21:13.147Z,0.77
2023-03-25T18:23:41.290Z,0.95
2023-03-25T18:26:15.485Z,1.00
2023-03-25T18:28:43.633Z,0.85
2023-03-25T18:31:17.505Z,0.90
2023-03-25T18:33:48.038Z,1.20
2023-03-25T18:36:15.722Z,0.80
2023-03-25T18:38:43.901Z,1.73
2023-03-25T18:41:12.073Z,1.10
2023-03-25T18:43:39.366Z,1.60
2023-03-25T18:46:06.886Z,1.35
2023-03-25T18:48:34.209Z,1.15
2023-03-25T18:51:01.584Z,1.27
2023-03-25T18:53:29.731Z,1.70
2023-03-25T18:56:01.624Z,1.65
2023-03-25T18:58:33.551Z,1.00
2023-03-25T19:01:01.573Z,1.63
2023-03-25T19:03:39.241Z,1.17
2023-03-25T19:06:08.402Z,1.48
2023-03-25T19:08:37.338Z,0.80
2023-03-25T19:11:19.115Z,1.65
2023-03-25T19:13:48.594Z,1.58
2023-03-25T19:16:16.221Z,1.20
2023-03-25T19:18:43.823Z,1.10
2023-03-25T19:21:14.782Z,1.38
2023-03-25T19:23:43.100Z,1.33
2023-03-25T19:26:10.606Z,1.33
2023-03-25T19:28:38.042Z,2.33
2023-03-25T19:31:05.679Z,1.63
2023-03-25T19:33:32.861Z,0.90
2023-03-25T19:36:01.835Z,1.50
2023-03-25T19:38:30.067Z,1.33
2023-03-25T19:41:05.530Z,1.25
2023-03-25T19:43:36.062Z,0.95
2023-03-25T19:46:03.974Z,0.95
2023-03-25T19:48:31.701Z,1.15
2023-03-25T19:50:59.127Z,1.05
2023-03-25T19:53:27.440Z,1.15
2023-03-25T19:55:55.165Z,0.80
2023-03-25T19:58:23.307Z,1.02
2023-03-25T20:00:51.699Z,1.38
2023-03-25T20:03:22.754Z,1.00
2023-03-25T20:05:50.942Z,1.17
2023-03-25T20:08:18.558Z,1.73
2023-03-25T20:10:45.726Z,1.58
2023-03-25T20:13:13.192Z,0.98
2023-03-25T20:15:40.483Z,0.90
2023-03-25T20:18:07.998Z,1.10
2023-03-25T20:20:35.514Z,1.15
2023-03-25T20:23:02.703Z,0.90
2023-03-25T20:25:30.058Z,1.13
2023-03-25T20:27:57.486Z,1.27
2023-03-25T20:30:25.162Z,1.20
2023-03-25T20:32:52.673Z,1.23
2023-03-25T20:35:21.662Z,1.45
2023-03-25T20:37:49.335Z,2.10
2023-03-25T20:40:17.704Z,1.60
2023-03-25T20:42:46.600Z,1.17
2023-03-25T20:45:14.878Z,1.20
2023-03-25T20:47:42.554Z,1.10
2023-03-25T20:50:11.002Z,1.52
2023-03-25T20:52:38.261Z,1.55
2023-03-25T20:55:06.158Z,2.33
2023-03-25T20:57:34.069Z,1.90
2023-03-25T21:00:01.680Z,1.27
2023-03-25T21:02:29.240Z,1.55
2023-03-25T21:04:59.104Z,1.42
2023-03-25T21:07:32.212Z,1.88
2023-03-25T21:09:59.849Z,2.33
2023-03-25T21:12:40.569Z,2.97
2023-03-25T21:15:11.099Z,2.13
2023-03-25T21:17:38.338Z,2.25
2023-03-25T21:20:09.392Z,2.20
2023-03-25T21:22:43.290Z,2.30
2023-03-25T21:25:11.884Z,2.63
2023-03-25T21:27:40.054Z,2.20
2023-03-25T21:30:09.688Z,1.80
2023-03-25T21:32:37.225Z,2.22
2023-03-25T21:35:04.719Z,2.38
2023-03-25T21:37:37.578Z,2.30
2023-03-25T21:40:08.601Z,2.10
2023-03-25T21:42:38.370Z,2.30
2023-03-25T21:45:07.365Z,2.20
2023-03-25T21:47:36.419Z,2.80
2023-03-25T21:50:09.528Z,6.53
2023-03-25T21:52:37.363Z,6.50
2023-03-25T21:55:05.489Z,5.68
2023-03-25T21:57:38.423Z,2.95
2023-03-25T22:00:08.167Z,1.75
2023-03-25T22:02:35.641Z,1.27
2023-03-25T22:05:02.973Z,1.55
2023-03-25T22:07:31.051Z,0.98
2023-03-25T22:09:58.256Z,2.25
2023-03-25T22:12:26.104Z,0.60
2023-03-25T22:14:53.285Z,0.82
2023-03-25T22:17:23.289Z,0.85
2023-03-25T22:19:50.758Z,1.25
2023-03-25T22:22:21.480Z,1.02
2023-03-25T22:24:49.574Z,0.75
2023-03-25T22:27:16.786Z,0.75
2023-03-25T22:29:44.071Z,0.85
2023-03-25T22:32:11.286Z,0.90
2023-03-25T22:34:39.066Z,0.88
2023-03-25T22:37:06.505Z,0.70
2023-03-25T22:39:34.152Z,0.82
2023-03-25T22:42:01.422Z,0.70
2023-03-25T22:44:28.780Z,0.90
2023-03-25T22:46:56.441Z,0.80
2023-03-25T22:49:24.107Z,0.50
2023-03-25T22:51:51.460Z,0.57
2023-03-25T22:54:18.876Z,0.80
2023-03-25T22:56:46.377Z,0.68
2023-03-25T22:59:14.454Z,0.90
2023-03-25T23:01:44.634Z,1.00
2023-03-25T23:04:11.811Z,0.70
2023-03-25T23:06:40.379Z,0.73
2023-03-25T23:09:08.598Z,1.00
2023-03-25T23:11:36.863Z,0.93
2023-03-25T23:14:13.346Z,1.00
2023-03-25T23:16:41.958Z,0.98
2023-03-25T23:19:10.074Z,1.08
2023-03-25T23:21:38.330Z,1.10
2023-03-25T23:24:05.776Z,0.70
2023-03-25T23:26:39.100Z,0.82
2023-03-25T23:29:08.954Z,0.95
2023-03-25T23:31:37.389Z,0.88
2023-03-25T23:34:06.308Z,0.85
2023-03-25T23:36:34.374Z,0.82
2023-03-25T23:39:04.298Z,0.80
2023-03-25T23:41:31.517Z,0.70
2023-03-25T23:43:58.925Z,1.00
2023-03-25T23:46:26.593Z,0.80
2023-03-25T23:48:54.830Z,0.70
2023-03-25T23:51:25.797Z,1.00
2023-03-25T23:53:53.287Z,0.85
2023-03-25T23:56:21.829Z,0.95
2023-03-25T23:58:49.238Z,1.38
